createdAt,value
2022-11-01T00:03:26.259Z,23.27
2022-11-01T00:08:22.387Z,26.52
2022-11-01T00:13:42.675Z,24.23
2022-11-01T00:18:57.688Z,25.73
2022-11-01T00:23:54.183Z,21.00
2022-11-01T00:28:54.542Z,23.45
2022-11-01T00:38:44.713Z,22.55
2022-11-01T00:43:38.306Z,26.63
2022-11-01T00:48:32.047Z,21.10
2022-11-01T00:53:26.789Z,25.67
2022-11-01T00:58:21.680Z,24.98
2022-11-01T01:03:14.933Z,24.83
2022-11-01T01:08:08.304Z,29.40
2022-11-01T01:13:01.844Z,24.20
2022-11-01T01:17:56.675Z,22.88
2022-11-01T01:22:50.246Z,24.63
2022-11-01T01:27:43.472Z,25.42
2022-11-01T01:32:37.566Z,19.33
2022-11-01T01:37:32.234Z,22.83
2022-11-01T01:42:30.722Z,22.33
2022-11-01T01:47:27.479Z,20.52
2022-11-01T01:52:21.491Z,19.98
2022-11-01T01:57:16.506Z,20.63
2022-11-01T02:02:09.949Z,21.88
2022-11-01T02:07:03.564Z,19.02
2022-11-01T02:11:56.888Z,19.63
2022-11-01T02:17:00.034Z,18.45
2022-11-01T02:22:02.830Z,19.48
2022-11-01T02:27:10.413Z,19.15
2022-11-01T02:32:18.530Z,19.80
2022-11-01T02:37:16.337Z,24.45
2022-11-01T02:42:15.826Z,16.85
2022-11-01T02:47:12.331Z,15.17
2022-11-01T02:52:08.408Z,15.48
2022-11-01T02:57:08.092Z,22.00
2022-11-01T03:02:08.636Z,28.88
2022-11-01T03:07:08.190Z,25.90
2022-11-01T03:12:07.019Z,25.33
2022-11-01T03:17:04.123Z,29.77
2022-11-01T03:22:06.871Z,21.58
2022-11-01T03:27:05.237Z,22.70
2022-11-01T03:32:00.408Z,21.85
2022-11-01T03:36:57.767Z,27.70
2022-11-01T03:41:57.511Z,21.38
2022-11-01T03:46:51.730Z,25.52
2022-11-01T03:51:45.070Z,22.40
2022-11-01T03:56:40.667Z,20.67
2022-11-01T04:01:35.855Z,16.88
2022-11-01T04:06:29.462Z,22.60
2022-11-01T04:11:22.726Z,16.08
2022-11-01T04:16:33.598Z,15.10
2022-11-01T04:26:22.626Z,15.25
2022-11-01T04:31:16.091Z,15.93
2022-11-01T04:36:10.375Z,17.20
2022-11-01T04:41:05.106Z,16.10
2022-11-01T04:46:00.457Z,17.60
2022-11-01T04:50:56.391Z,17.02
2022-11-01T04:56:12.864Z,17.73
2022-11-01T05:01:16.228Z,19.70
2022-11-01T05:06:15.584Z,18.00
2022-11-01T05:11:32.834Z,18.23
2022-11-01T05:16:27.797Z,19.90
2022-11-01T05:21:23.827Z,22.10
2022-11-01T05:26:17.463Z,22.92
2022-11-01T05:31:17.428Z,22.23
2022-11-01T05:36:13.429Z,25.30
2022-11-01T05:46:12.854Z,30.83
2022-11-01T05:51:06.524Z,29.42
2022-11-01T05:56:13.708Z,26.80
2022-11-01T06:01:12.447Z,25.63
2022-11-01T06:06:06.795Z,24.83
2022-11-01T06:11:22.886Z,33.03
2022-11-01T06:16:31.517Z,22.80
2022-11-01T06:21:55.664Z,24.48
2022-11-01T06:27:57.510Z,33.75
2022-11-01T06:33:17.386Z,25.83
2022-11-01T06:38:37.967Z,29.58
2022-11-01T06:43:49.327Z,26.30
2022-11-01T06:49:51.421Z,23.70
2022-11-01T07:02:14.548Z,26.52
2022-11-01T07:08:00.381Z,29.38
2022-11-01T07:13:33.911Z,39.88
2022-11-01T07:19:01.049Z,29.70
2022-11-01T07:37:04.616Z,28.08
2022-11-01T07:42:38.445Z,34.40
2022-11-01T07:47:56.341Z,32.33
2022-11-01T07:53:12.536Z,30.92
2022-11-01T07:58:11.680Z,36.20
2022-11-01T08:15:06.126Z,27.63
2022-11-01T08:20:18.551Z,26.95
2022-11-01T08:25:19.144Z,27.58
2022-11-01T08:30:18.153Z,28.42
2022-11-01T08:35:19.505Z,30.60
2022-11-01T08:40:13.758Z,28.88
2022-11-01T08:45:09.225Z,25.48
2022-11-01T08:50:07.135Z,30.52
2022-11-01T08:55:38.636Z,32.55
2022-11-01T09:00:36.770Z,24.42
2022-11-01T09:05:40.108Z,27.17
2022-11-01T09:10:56.685Z,27.38
2022-11-01T09:22:05.215Z,23.00
2022-11-01T09:27:08.781Z,22.90
2022-11-01T09:32:19.668Z,23.85
2022-11-01T09:37:15.873Z,21.33
2022-11-01T09:42:16.557Z,17.48
2022-11-01T09:47:17.675Z,13.13
2022-11-01T09:53:18.577Z,13.05
2022-11-01T10:05:29.141Z,11.00
2022-11-01T10:10:44.601Z,10.60
2022-11-01T10:15:50.957Z,11.60
2022-11-01T10:21:09.408Z,11.98
2022-11-01T10:26:20.909Z,10.50
2022-11-01T10:31:23.134Z,9.98
2022-11-01T10:36:25.083Z,8.82
2022-11-01T10:41:30.028Z,9.88
2022-11-01T10:46:35.101Z,11.88
2022-11-01T10:51:34.978Z,12.65
2022-11-01T10:56:41.033Z,12.02
2022-11-01T11:01:43.899Z,13.13
2022-11-01T11:11:59.474Z,9.93
2022-11-01T11:16:59.596Z,9.20
2022-11-01T11:22:04.764Z,10.05
2022-11-01T11:27:31.355Z,12.07
2022-11-01T11:32:41.423Z,10.30
2022-11-01T11:38:14.096Z,10.15
2022-11-01T11:43:42.745Z,10.30
2022-11-01T11:49:38.133Z,13.25
2022-11-01T11:54:57.954Z,14.30
2022-11-01T11:59:56.899Z,11.80
2022-11-01T12:04:57.500Z,13.53
2022-11-01T12:10:00.389Z,16.48
2022-11-01T12:14:58.399Z,10.88
2022-11-01T12:20:02.417Z,14.98
2022-11-01T12:25:05.423Z,11.98
2022-11-01T12:30:05.290Z,13.20
2022-11-01T12:35:08.984Z,9.88
2022-11-01T12:40:21.910Z,10.05
2022-11-01T12:45:30.524Z,9.75
2022-11-01T12:50:42.578Z,12.02
2022-11-01T12:56:01.860Z,11.55
2022-11-01T13:01:35.814Z,10.73
2022-11-01T13:07:00.920Z,11.38
2022-11-01T13:12:08.438Z,11.45
2022-11-01T13:17:11.226Z,12.55
2022-11-01T13:22:19.438Z,14.65
2022-11-01T13:27:20.083Z,15.30
2022-11-01T13:32:22.524Z,10.20
2022-11-01T13:37:35.726Z,13.38
2022-11-01T13:42:38.159Z,13.43
2022-11-01T13:48:08.708Z,11.43
2022-11-01T13:53:11.456Z,12.98
2022-11-01T13:58:08.420Z,14.52
2022-11-01T14:03:22.905Z,16.95
2022-11-01T14:08:30.903Z,19.08
2022-11-01T14:13:50.216Z,19.83
2022-11-01T14:19:20.117Z,25.75
2022-11-01T14:24:33.555Z,27.20
2022-11-01T14:29:36.314Z,19.55
2022-11-01T14:34:39.722Z,28.52
2022-11-01T14:39:40.243Z,39.05
2022-11-01T14:44:40.596Z,30.92
2022-11-01T14:49:49.247Z,21.40
2022-11-01T14:54:55.113Z,20.13
2022-11-01T14:59:55.434Z,18.52
2022-11-01T15:04:50.846Z,24.02
2022-11-01T15:10:06.246Z,20.77
2022-11-01T15:15:05.174Z,27.90
2022-11-01T15:20:00.218Z,23.20
2022-11-01T15:25:00.464Z,28.52
2022-11-01T15:29:57.059Z,35.70
2022-11-01T15:35:07.582Z,38.00
2022-11-01T15:40:34.524Z,49.13
2022-11-01T15:45:46.043Z,42.83
2022-11-01T15:50:53.954Z,43.45
2022-11-01T15:56:07.065Z,47.42
2022-11-01T16:01:04.426Z,43.35
2022-11-01T16:06:19.979Z,35.95
2022-11-01T16:11:29.741Z,29.00
2022-11-01T16:17:02.284Z,29.13
2022-11-01T16:22:06.734Z,26.35
2022-11-01T16:27:43.478Z,26.95
2022-11-01T16:33:13.714Z,25.40
2022-11-01T16:44:44.266Z,25.58
2022-11-01T17:00:00.790Z,30.13
2022-11-01T17:05:41.572Z,31.70
2022-11-01T17:10:49.673Z,32.20
2022-11-01T17:21:50.884Z,35.88
2022-11-01T17:27:01.669Z,41.65
2022-11-01T17:38:12.527Z,43.92
2022-11-01T17:43:25.938Z,48.40
2022-11-01T17:49:27.647Z,47.63
2022-11-01T17:55:09.942Z,45.22
2022-11-01T18:00:25.862Z,42.60
2022-11-01T18:05:22.733Z,39.67
2022-11-01T18:10:37.847Z,42.78
2022-11-01T18:15:49.084Z,33.10
2022-11-01T18:21:10.517Z,30.23
2022-11-01T18:26:31.453Z,29.95
2022-11-01T18:43:24.199Z,24.92
2022-11-01T18:54:53.567Z,24.83
2022-11-01T19:00:15.196Z,28.33
2022-11-01T19:05:23.290Z,32.83
2022-11-01T19:10:26.665Z,39.33
2022-11-01T19:15:34.964Z,30.45
2022-11-01T19:20:58.260Z,32.83
2022-11-01T19:26:09.305Z,32.67
2022-11-01T19:31:21.849Z,29.05
2022-11-01T19:36:40.888Z,25.80
2022-11-01T19:41:59.312Z,24.83
2022-11-01T19:47:43.818Z,27.48
2022-11-01T19:52:48.584Z,24.13
2022-11-01T19:58:55.327Z,27.88
2022-11-01T20:09:58.618Z,28.08
2022-11-01T20:22:20.981Z,61.08
2022-11-01T20:28:13.518Z,51.60
2022-11-01T20:33:51.618Z,44.58
2022-11-01T20:38:56.549Z,117.13
2022-11-01T20:45:11.307Z,113.53
2022-11-01T20:50:26.714Z,22.90
2022-11-01T20:56:01.172Z,19.42
2022-11-01T21:01:50.057Z,22.35
2022-11-01T21:07:21.916Z,22.30
2022-11-01T21:12:44.592Z,21.13
2022-11-01T21:17:43.357Z,18.40
2022-11-01T21:22:46.969Z,19.55
2022-11-01T21:27:58.843Z,21.00
2022-11-01T21:33:56.816Z,25.92
2022-11-01T21:39:05.107Z,21.67
2022-11-01T21:44:32.254Z,20.65
2022-11-01T21:49:32.235Z,17.93
2022-11-01T21:54:43.348Z,17.23
2022-11-01T21:59:43.846Z,19.20
2022-11-01T22:04:41.132Z,20.90
2022-11-01T22:14:59.269Z,17.60
2022-11-01T22:25:44.553Z,15.77
2022-11-01T22:30:46.096Z,17.15
2022-11-01T22:35:45.346Z,15.50
2022-11-01T22:40:41.082Z,18.05
2022-11-01T22:45:43.244Z,15.95
2022-11-01T22:50:41.422Z,17.67
2022-11-01T22:55:44.396Z,21.75
2022-11-01T23:00:39.196Z,17.02
2022-11-01T23:05:35.653Z,14.82
2022-11-01T23:10:36.550Z,13.52
2022-11-01T23:15:31.553Z,13.73
2022-11-01T23:20:25.017Z,13.88
2022-11-01T23:25:18.550Z,14.00
2022-11-01T23:30:14.247Z,12.02
2022-11-01T23:35:15.879Z,13.75
2022-11-01T23:40:16.505Z,14.52
2022-11-01T23:45:22.522Z,12.60
2022-11-01T23:50:21.745Z,13.05
2022-11-01T23:55:21.038Z,11.30
